Surigao, Philippines
Current Conditions -  °F | °C
As of 10:00 PM on Monday 24 Nov 2014 (Local Time) from RPVM Reporting Station
Scattered Clouds Scattered Clouds  
Wind Chill: 84°   Ceiling: Unl
Heat Index: 94°   Visibility: 6mi
Dew Point: 77°   Wind: 9mph
Humidity: 79%   Direction: 40°NE
Pressure: 29.83"   Gusts: NA
Location:  9.8°N, 125.47°E
Report Text: RPVM 241400Z 04008KT 9999 SCT020 29/25 Q1010 A2983
Loading
Personal Weather Stations






























Interactive Weather Map New forecast layout! Learn more

10-Day Weather Forecast

Advertisements
Track Severe Weather on mobile